If you wish to contribute or participate in the discussions about articles you are invited to join SKYbrary as a registered user

 Actions

Lyon-Bron Airport

From SKYbrary Wiki

LFLY
Airport
ICAO: LFLY – IATA: LYN
Summary
Name Lyon-Bron Airport
Region Europe
Territory France FR.gif
Location , Rhone-Alpes
Serving Lyon
Elevation 200.863 m
659 ft
659 ft200.863 m
Type medium airport
Coordinates 45° 43' 37.82" N, 4° 56' 39.39" E
Runways
Designator Length Width Surface ROPS
16/34 1820 m5,971.129 ft
45 m147.638 ft
ASP yes/yes


METAR
Observation LFLY 221900Z AUTO 01002KT CAVOK 22/15 Q1023 NOSIG
Station Lyon / Bron
Date/Time 22 August 2019 19:00:00
Wind direction 10°
Wind speed 02 kts
Lowest cloud amount clouds and visibility OK
Temperature 22°C
Dew point 15°C
Humidity 64%
QNH 1023 hPa
Weather condition n/a